Time;durP1;ratioP1;P1;durP2;ratioP2;P2;SDS_P1;SDS_P2;PMS_P1;PMS_P2;Temp;Humidity;BMP_temperature;BMP_pressure;BME280_temperature;BME280_humidity;BME280_pressure;Samples;Min_cycle;Max_cycle;Signal;HPM_P1;HPM_P2
2022/08/08 00:00:28;;;;;;;;;2.00;2.00;;;;;15.29;48.74;100624.41;5098009;28;8899;-62
2022/08/08 00:03:16;;;;;;;;;6.00;6.00;;;;;15.22;49.05;100626.78;5102069;28;9465;-62
2022/08/08 00:05:58;;;;;;;;;3.50;3.50;;;;;15.15;49.22;100625.63;5097835;28;8821;-62
2022/08/08 00:08:29;;;;;;;;;4.00;4.00;;;;;15.10;49.09;100629.72;5097870;28;8840;-62
2022/08/08 00:10:58;;;;;;;;;8.00;8.00;;;;;15.04;49.19;100633.78;5097916;28;8837;-62
2022/08/08 00:13:26;;;;;;;;;9.75;9.00;;;;;14.96;49.86;100630.88;5097630;28;8931;-61
2022/08/08 00:16:13;;;;;;;;;8.50;7.75;;;;;14.88;49.45;100624.50;5097579;28;8845;-62
2022/08/08 00:18:42;;;;;;;;;6.50;6.00;;;;;14.80;49.81;100618.97;5098047;28;8842;-62
2022/08/08 00:21:11;;;;;;;;;5.00;5.00;;;;;14.73;50.49;100615.09;5097644;28;8921;-62
2022/08/08 00:23:43;;;;;;;;;6.00;4.50;;;;;14.68;50.66;100630.72;5097764;28;8930;-62
2022/08/08 00:26:17;;;;;;;;;6.75;6.50;;;;;14.64;50.76;100618.56;5097596;28;8825;-62
2022/08/08 00:28:56;;;;;;;;;4.00;3.75;;;;;14.62;51.11;100617.84;5105592;28;8796;-62
2022/08/08 00:31:24;;;;;;;;;6.00;6.00;;;;;14.58;50.94;100622.59;5117626;28;8812;-62
2022/08/08 00:36:56;;;;;;;;;3.00;3.00;;;;;14.53;50.73;100623.97;5138898;27;8837;-61
2022/08/08 00:39:34;;;;;;;;;4.00;4.00;;;;;14.50;51.04;100618.91;5138898;27;8849;-62
2022/08/08 00:42:22;;;;;;;;;3.00;3.00;;;;;14.47;51.14;100621.81;5136523;27;8880;-62
2022/08/08 00:45:01;;;;;;;;;3.50;3.25;;;;;14.45;50.72;100629.16;5138711;27;8818;-61
2022/08/08 00:47:30;;;;;;;;;4.00;4.00;;;;;14.45;50.72;100623.78;5138581;27;8829;-62
2022/08/08 00:50:17;;;;;;;;;3.75;3.75;;;;;14.46;50.48;100623.66;5138109;27;8837;-61
2022/08/08 00:52:45;;;;;;;;;4.00;4.00;;;;;14.47;51.03;100625.34;5138281;27;9495;-62
2022/08/08 00:55:18;;;;;;;;;4.25;3.50;;;;;14.47;50.64;100616.47;5138588;27;9495;-61
2022/08/08 00:58:02;;;;;;;;;4.00;4.00;;;;;14.49;50.79;100617.19;5138178;27;8897;-62
2022/08/08 01:00:38;;;;;;;;;5.00;4.00;;;;;14.49;50.49;100617.19;5117325;28;8821;-62
2022/08/08 01:03:14;;;;;;;;;4.00;4.00;;;;;14.49;50.75;100622.56;5117635;28;8855;-62
2022/08/08 01:06:02;;;;;;;;;2.00;1.00;;;;;14.51;50.52;100620.59;5117130;28;8951;-61
2022/08/08 01:08:30;;;;;;;;;5.50;5.50;;;;;14.49;50.82;100628.75;5116946;28;8834;-62
2022/08/08 01:10:58;;;;;;;;;5.50;5.50;;;;;14.48;50.67;100636.94;5117460;28;8839;-61
2022/08/08 01:13:26;;;;;;;;;4.00;4.00;;;;;14.43;50.63;100628.44;5117147;28;8946;-62
2022/08/08 01:16:10;;;;;;;;;4.00;4.00;;;;;14.36;50.94;100632.59;5117511;28;8847;-62
2022/08/08 01:18:43;;;;;;;;;3.00;3.00;;;;;14.27;51.46;100633.38;5117299;28;8957;-62
2022/08/08 01:21:21;;;;;;;;;4.00;4.00;;;;;14.20;51.33;100630.34;5116735;28;8877;-61
2022/08/08 01:24:08;;;;;;;;;4.75;4.75;;;;;14.14;51.49;100630.00;5116751;28;8828;-61
2022/08/08 01:26:43;;;;;;;;;6.00;5.50;;;;;14.07;51.60;100626.13;5117377;28;8824;-61
2022/08/08 01:29:15;;;;;;;;;5.00;5.00;;;;;14.02;51.69;100636.34;5125786;27;8941;-61
2022/08/08 01:31:50;;;;;;;;;5.50;5.50;;;;;13.97;51.68;100630.53;5137418;27;8826;-62
2022/08/08 01:34:38;;;;;;;;;3.00;3.00;;;;;13.91;51.93;100628.38;5137032;27;9024;-62
2022/08/08 01:37:07;;;;;;;;;3.25;3.25;;;;;13.86;52.09;100627.88;5137485;27;8847;-62
2022/08/08 01:39:43;;;;;;;;;6.00;4.00;;;;;13.81;51.89;100635.47;5137531;27;8818;-62
2022/08/08 01:42:12;;;;;;;;;5.00;5.00;;;;;13.74;52.21;100634.25;5136635;27;8822;-62
2022/08/08 01:44:42;;;;;;;;;6.00;4.00;;;;;13.69;52.31;100636.44;5136961;27;8837;-62
2022/08/08 01:47:16;;;;;;;;;6.00;6.00;;;;;13.65;52.28;100637.66;5135552;27;8821;-62
2022/08/08 01:50:04;;;;;;;;;4.00;4.00;;;;;13.62;52.40;100632.56;5136176;27;8854;-62
2022/08/08 01:52:34;;;;;;;;;6.25;5.75;;;;;13.59;53.18;100633.66;5137004;27;8822;-62
2022/08/08 01:55:21;;;;;;;;;4.00;4.00;;;;;13.55;52.58;100628.69;5136645;27;8858;-62
2022/08/08 01:58:09;;;;;;;;;5.00;3.50;;;;;13.50;53.08;100626.38;5136916;27;8870;-62
2022/08/08 02:00:40;;;;;;;;;4.00;3.50;;;;;13.47;53.05;100625.78;5136900;27;8821;-62
2022/08/08 02:03:08;;;;;;;;;2.00;2.00;;;;;13.43;53.28;100624.34;5136910;27;8884;-62
2022/08/08 02:05:56;;;;;;;;;5.50;5.50;;;;;13.39;53.27;100622.88;5136658;27;8853;-62
2022/08/08 02:08:25;;;;;;;;;4.50;4.50;;;;;13.36;53.07;100629.31;5136839;27;8837;-63
2022/08/08 02:11:00;;;;;;;;;4.00;4.00;;;;;13.36;52.96;100631.16;5136579;27;8845;-62
2022/08/08 02:13:30;;;;;;;;;3.00;3.00;;;;;13.38;52.95;100631.88;5137126;27;9549;-62
2022/08/08 02:16:18;;;;;;;;;4.00;4.00;;;;;13.42;53.04;100642.19;5136207;27;8947;-62
2022/08/08 02:18:48;;;;;;;;;4.00;4.00;;;;;13.42;52.82;100639.53;5122277;28;8908;-62
2022/08/08 02:24:14;;;;;;;;;6.00;6.00;;;;;13.36;53.40;100642.69;5116107;28;8847;-61
2022/08/08 02:26:43;;;;;;;;;6.25;6.00;;;;;13.34;53.22;100641.09;5115784;28;8819;-63
2022/08/08 02:29:14;;;;;;;;;4.00;4.00;;;;;13.30;53.00;100634.31;5116250;28;8839;-62
2022/08/08 02:31:47;;;;;;;;;4.00;3.50;;;;;13.24;53.50;100640.16;5116666;28;9628;-62
2022/08/08 02:34:31;;;;;;;;;3.25;3.00;;;;;13.20;53.30;100630.69;5107911;28;8858;-62
2022/08/08 02:37:01;;;;;;;;;6.25;6.00;;;;;13.17;53.56;100625.56;5095964;28;8838;-62
2022/08/08 02:39:28;;;;;;;;;3.50;3.50;;;;;13.13;53.48;100618.75;5096072;28;8852;-63
2022/08/08 02:42:16;;;;;;;;;4.00;3.25;;;;;13.10;53.89;100627.00;5094438;28;8853;-62
2022/08/08 02:45:02;;;;;;;;;4.00;4.00;;;;;13.08;53.97;100628.97;5095373;28;8927;-62
2022/08/08 02:47:36;;;;;;;;;4.00;4.00;;;;;13.06;53.48;100625.56;5101210;28;8835;-62
2022/08/08 02:50:04;;;;;;;;;4.00;4.00;;;;;13.06;53.89;100626.41;5115349;28;8848;-63
2022/08/08 02:52:38;;;;;;;;;6.75;6.00;;;;;13.07;53.64;100627.25;5116155;28;8820;-63
2022/08/08 02:55:07;;;;;;;;;6.50;6.25;;;;;13.07;53.70;100622.75;5115857;28;8823;-61
2022/08/08 02:57:45;;;;;;;;;5.00;4.50;;;;;13.05;53.86;100632.72;5115792;28;8840;-61
2022/08/08 03:00:18;;;;;;;;;6.00;4.50;;;;;13.02;53.58;100630.31;5116096;28;9502;-62
2022/08/08 03:03:00;;;;;;;;;6.00;5.00;;;;;12.99;54.00;100627.00;5115483;28;9002;-62
2022/08/08 03:05:28;;;;;;;;;5.75;5.75;;;;;12.95;53.98;100622.88;5116296;28;8978;-61
2022/08/08 03:08:13;;;;;;;;;6.00;4.00;;;;;12.93;53.79;100627.47;5119632;28;8836;-62
2022/08/08 03:10:40;;;;;;;;;3.25;3.25;;;;;12.94;54.01;100632.72;5118762;28;8858;-61
2022/08/08 03:13:16;;;;;;;;;6.00;5.00;;;;;12.96;54.00;100641.47;5119605;28;8994;-65
2022/08/08 03:16:04;;;;;;;;;3.50;3.50;;;;;12.99;53.55;100645.72;5119081;28;8856;-62
2022/08/08 03:18:33;;;;;;;;;6.50;6.00;;;;;12.99;53.68;100645.72;5104916;28;8891;-62
2022/08/08 03:21:01;;;;;;;;;4.00;3.25;;;;;12.99;54.23;100645.72;5098475;28;8911;-62
2022/08/08 03:23:36;;;;;;;;;6.25;6.25;;;;;12.97;54.12;100651.19;5098605;28;8818;-62
2022/08/08 03:26:24;;;;;;;;;4.50;4.50;;;;;12.93;54.17;100651.50;5098245;28;8845;-62
2022/08/08 03:28:53;;;;;;;;;3.50;3.00;;;;;12.90;53.98;100655.28;5099083;28;8834;-63
2022/08/08 03:34:28;;;;;;;;;3.00;3.00;;;;;12.87;54.21;100660.00;5098412;28;8862;-63
2022/08/08 03:36:56;;;;;;;;;4.00;4.00;;;;;12.82;54.30;100652.34;5098909;28;8906;-63
2022/08/08 03:39:23;;;;;;;;;3.75;3.75;;;;;12.78;54.73;100661.59;5098946;28;8964;-63
2022/08/08 03:41:51;;;;;;;;;4.00;4.00;;;;;12.73;54.62;100654.88;5098313;28;8834;-63
2022/08/08 03:44:39;;;;;;;;;7.00;7.00;;;;;12.66;54.93;100656.31;5098329;28;8850;-63
2022/08/08 03:47:14;;;;;;;;;3.00;3.00;;;;;12.57;54.84;100657.03;5103053;28;8820;-62
2022/08/08 03:49:47;;;;;;;;;5.50;5.50;;;;;12.50;55.13;100661.13;5118049;28;8847;-63
2022/08/08 03:52:28;;;;;;;;;5.00;4.75;;;;;12.42;54.93;100667.06;5118774;28;8843;-63
2022/08/08 03:54:56;;;;;;;;;6.50;6.50;;;;;12.37;55.29;100663.00;5118954;28;8840;-62
2022/08/08 03:57:37;;;;;;;;;4.00;4.00;;;;;12.34;55.25;100669.47;5117788;28;8820;-62
2022/08/08 04:00:25;;;;;;;;;6.00;5.00;;;;;12.31;55.68;100674.19;5117794;28;8828;-62
2022/08/08 04:02:53;;;;;;;;;6.00;6.00;;;;;12.27;55.64;100683.38;5117099;28;8890;-61
2022/08/08 04:05:21;;;;;;;;;6.00;6.00;;;;;12.23;55.72;100685.41;5118728;28;8844;-63
2022/08/08 04:07:55;;;;;;;;;4.50;4.00;;;;;12.19;55.75;100678.63;5118516;28;8946;-63
2022/08/08 04:10:24;;;;;;;;;9.00;9.00;;;;;12.17;55.64;100683.19;5118510;28;8940;-61
2022/08/08 04:12:58;;;;;;;;;4.50;4.00;;;;;12.17;55.59;100683.19;5117788;28;8823;-61
2022/08/08 04:15:26;;;;;;;;;0.00;0.00;;;;;12.18;55.72;100684.06;5117433;28;8896;-62
2022/08/08 04:18:05;;;;;;;;;4.00;4.00;;;;;12.22;55.59;100690.88;5115063;28;8836;-62
2022/08/08 04:20:36;;;;;;;;;6.75;5.50;;;;;12.26;55.47;100687.03;5116178;28;8824;-63
2022/08/08 04:23:07;;;;;;;;;5.00;5.00;;;;;12.28;55.74;100680.59;5116098;28;8854;-62
2022/08/08 04:25:35;;;;;;;;;5.00;4.50;;;;;12.32;55.70;100686.56;5116330;28;8954;-62
2022/08/08 04:28:04;;;;;;;;;7.00;7.00;;;;;12.34;55.12;100685.50;5115981;28;8828;-62
2022/08/08 04:30:52;;;;;;;;;6.00;6.00;;;;;12.38;55.37;100686.94;5115720;28;8848;-62
2022/08/08 04:33:21;;;;;;;;;4.00;4.00;;;;;12.41;55.79;100680.53;5116420;28;8862;-62
2022/08/08 04:35:49;;;;;;;;;7.50;7.00;;;;;12.45;55.69;100687.34;5136205;27;9518;-61
2022/08/08 04:38:18;;;;;;;;;5.75;5.50;;;;;12.51;55.28;100686.88;5137572;27;8976;-62
2022/08/08 04:40:48;;;;;;;;;4.75;4.75;;;;;12.56;55.32;100690.91;5137926;27;8814;-63
2022/08/08 04:43:20;;;;;;;;;5.00;5.00;;;;;12.60;55.27;100686.19;5136895;27;8818;-62
2022/08/08 04:45:48;;;;;;;;;6.75;6.00;;;;;12.67;55.07;100688.28;5137274;27;9531;-63
2022/08/08 04:48:17;;;;;;;;;5.25;5.25;;;;;12.74;55.49;100693.97;5119526;27;8824;-61
2022/08/08 04:50:48;;;;;;;;;4.00;4.00;;;;;12.82;54.91;100697.78;5115833;28;9482;-62
2022/08/08 04:53:17;;;;;;;;;7.00;7.00;;;;;12.89;54.81;100698.16;5115318;28;8824;-62
2022/08/08 04:56:05;;;;;;;;;4.50;4.50;;;;;12.98;54.69;100701.00;5115581;28;8840;-61
2022/08/08 04:58:32;;;;;;;;;6.50;6.50;;;;;13.10;54.77;100704.56;5115854;28;8893;-61
2022/08/08 05:01:00;;;;;;;;;3.00;3.00;;;;;13.21;54.04;100704.59;5115783;28;8974;-62
2022/08/08 05:03:37;;;;;;;;;5.50;5.50;;;;;13.39;54.22;100703.13;5116087;28;8990;-61
2022/08/08 05:06:25;;;;;;;;;8.50;7.00;;;;;13.58;53.76;100706.06;5116447;28;8824;-62
2022/08/08 05:08:55;;;;;;;;;8.00;8.00;;;;;13.71;53.47;100709.44;5117037;28;8958;-61
2022/08/08 05:11:29;;;;;;;;;6.00;6.00;;;;;13.80;53.53;100712.22;5117202;28;8831;-61
2022/08/08 05:14:06;;;;;;;;;7.00;6.75;;;;;13.91;53.27;100706.00;5116790;28;8816;-61
2022/08/08 05:16:33;;;;;;;;;6.00;6.00;;;;;14.04;53.24;100706.72;5117362;27;8959;-61
2022/08/08 05:19:21;;;;;;;;;7.00;7.00;;;;;14.21;52.94;100700.88;5115950;28;8840;-62
2022/08/08 05:22:09;;;;;;;;;6.75;6.75;;;;;14.37;52.99;100694.13;5116268;28;8852;-65
2022/08/08 05:24:37;;;;;;;;;7.50;7.50;;;;;14.46;52.95;100705.88;5116358;28;8912;-61
2022/08/08 05:27:05;;;;;;;;;7.00;7.00;;;;;14.56;53.07;100698.78;5115427;28;8854;-61
2022/08/08 05:29:33;;;;;;;;;6.50;6.00;;;;;14.61;52.84;100704.59;5115342;28;8917;-61
2022/08/08 05:32:02;;;;;;;;;9.00;7.50;;;;;14.66;52.95;100699.72;5115349;28;8828;-61
2022/08/08 05:34:34;;;;;;;;;6.50;6.50;;;;;14.72;52.91;100694.66;5106542;28;8850;-61
2022/08/08 05:37:02;;;;;;;;;9.75;9.00;;;;;14.78;52.45;100696.84;5094792;28;8879;-61
2022/08/08 05:39:45;;;;;;;;;6.00;6.00;;;;;14.85;53.09;100691.78;5095520;28;8822;-61
2022/08/08 05:42:14;;;;;;;;;7.50;7.00;;;;;14.93;52.91;100697.34;5094030;28;9505;-62
2022/08/08 05:44:45;;;;;;;;;8.50;7.00;;;;;15.02;52.92;100693.91;5093379;28;8886;-62
2022/08/08 05:47:15;;;;;;;;;7.50;7.00;;;;;15.13;52.41;100700.06;5094169;28;9066;-62
2022/08/08 05:49:47;;;;;;;;;8.00;7.50;;;;;15.27;51.97;100698.84;5092913;28;8968;-61
2022/08/08 05:52:22;;;;;;;;;9.00;9.00;;;;;15.43;52.17;100699.25;5092820;28;8877;-62
2022/08/08 05:55:02;;;;;;;;;8.50;7.50;;;;;15.51;51.77;100694.91;5092311;28;9200;-61
2022/08/08 05:57:36;;;;;;;;;9.50;8.50;;;;;15.60;51.51;100694.09;5093153;28;8834;-62
2022/08/08 06:00:24;;;;;;;;;9.00;7.00;;;;;15.69;51.53;100700.50;5092621;28;8857;-61
2022/08/08 06:03:10;;;;;;;;;9.00;8.00;;;;;15.80;51.84;100693.19;5092892;28;8866;-62
2022/08/08 06:05:51;;;;;;;;;8.75;8.50;;;;;15.98;51.34;100693.34;5092700;28;8834;-61
2022/08/08 06:08:23;;;;;;;;;9.75;9.75;;;;;16.14;51.28;100688.31;5092688;28;8834;-62
2022/08/08 06:11:00;;;;;;;;;10.50;9.50;;;;;16.28;51.13;100692.31;5093892;28;8884;-62
2022/08/08 06:13:28;;;;;;;;;7.50;7.50;;;;;16.39;51.48;100694.88;5092202;28;8846;-61
2022/08/08 06:16:08;;;;;;;;;11.00;9.25;;;;;16.51;50.66;100693.75;5092273;28;8842;-61
2022/08/08 06:18:36;;;;;;;;;7.00;6.00;;;;;16.60;50.93;100698.28;5093870;28;8871;-61
2022/08/08 06:21:06;;;;;;;;;8.00;8.00;;;;;16.69;51.00;100702.81;5094197;28;8834;-61
2022/08/08 06:23:53;;;;;;;;;9.75;9.50;;;;;16.83;50.61;100699.69;5092990;28;9585;-62
2022/08/08 06:26:31;;;;;;;;;8.00;7.50;;;;;16.99;50.43;100713.41;5092463;28;8945;-62
2022/08/08 06:29:10;;;;;;;;;10.00;9.25;;;;;17.14;50.15;100714.66;5093093;28;8964;-62
2022/08/08 06:31:57;;;;;;;;;6.25;6.00;;;;;17.35;49.51;100715.31;5092246;28;8860;-61
2022/08/08 06:34:41;;;;;;;;;9.00;8.00;;;;;17.58;49.76;100714.00;5091261;28;8858;-62
2022/08/08 06:37:21;;;;;;;;;11.00;9.50;;;;;17.72;49.02;100718.91;5092571;28;8926;-62
2022/08/08 06:39:52;;;;;;;;;9.75;9.00;;;;;17.84;49.13;100714.16;5092220;28;8996;-64
2022/08/08 06:42:22;;;;;;;;;3.50;3.50;;;;;17.99;49.43;100718.91;5096421;28;8838;-62
2022/08/08 06:44:54;;;;;;;;;10.50;9.25;;;;;18.12;49.08;100719.41;5096376;28;9551;-61
2022/08/08 06:47:22;;;;;;;;;8.75;8.00;;;;;18.26;49.34;100724.28;5096755;28;8833;-61
2022/08/08 06:50:10;;;;;;;;;10.00;10.00;;;;;18.39;48.80;100716.72;5098163;28;8838;-61
2022/08/08 06:52:44;;;;;;;;;8.60;8.60;;;;;18.50;48.90;100721.88;5097722;28;8854;-62
2022/08/08 06:55:16;;;;;;;;;5.60;4.40;;;;;18.60;48.82;100722.63;5097690;28;8822;-62
2022/08/08 06:57:44;;;;;;;;;9.60;9.00;;;;;18.75;48.49;100721.09;5097749;28;9586;-61
2022/08/08 07:00:25;;;;;;;;;10.00;10.00;;;;;18.81;48.50;100723.19;5097532;28;8868;-61
2022/08/08 07:02:57;;;;;;;;;10.80;9.40;;;;;18.75;48.70;100723.78;5097689;28;8854;-61
2022/08/08 07:05:25;;;;;;;;;9.50;9.00;;;;;18.72;48.58;100716.00;5096974;28;8870;-61
2022/08/08 07:08:06;;;;;;;;;12.50;12.50;;;;;18.72;48.33;100724.13;5095881;28;8834;-61
2022/08/08 07:10:35;;;;;;;;;9.25;9.25;;;;;18.82;48.40;100726.75;5096602;28;8856;-61
2022/08/08 07:13:08;;;;;;;;;12.20;11.60;;;;;18.91;48.18;100723.09;5097535;28;9495;-61
2022/08/08 07:15:36;;;;;;;;;12.50;10.00;;;;;19.05;48.48;100723.38;5096991;28;8822;-61
2022/08/08 07:18:25;;;;;;;;;9.75;9.75;;;;;19.24;48.17;100720.53;5093821;28;8834;-62
2022/08/08 07:21:03;;;;;;;;;12.75;12.25;;;;;19.37;47.91;100723.66;5097323;28;9593;-61
2022/08/08 07:23:45;;;;;;;;;9.00;9.00;;;;;19.54;47.41;100725.47;5096556;28;8854;-61
2022/08/08 07:26:29;;;;;;;;;13.00;11.80;;;;;19.73;47.25;100729.78;5096804;28;8826;-61
2022/08/08 07:29:02;;;;;;;;;13.20;11.20;;;;;19.88;47.05;100739.81;5096437;28;8848;-61
2022/08/08 07:31:34;;;;;;;;;10.40;10.40;;;;;20.02;47.01;100741.91;5097268;28;10249;-62
2022/08/08 07:34:02;;;;;;;;;13.60;13.60;;;;;20.13;46.41;100730.84;5095901;28;8862;-63
2022/08/08 07:36:35;;;;;;;;;13.80;12.80;;;;;20.21;46.50;100733.59;5096164;28;8871;-61
2022/08/08 07:39:08;;;;;;;;;11.60;10.60;;;;;20.32;46.69;100735.13;5097235;28;8844;-62
2022/08/08 07:41:41;;;;;;;;;10.60;10.40;;;;;20.42;46.71;100734.00;5096976;28;8822;-61
2022/08/08 07:44:29;;;;;;;;;11.00;11.00;;;;;20.53;46.57;100730.94;5095850;28;8826;-62
2022/08/08 07:47:07;;;;;;;;;10.00;10.00;;;;;20.61;46.13;100733.69;5095314;28;8850;-61
2022/08/08 07:49:35;;;;;;;;;11.60;11.20;;;;;20.70;46.16;100727.25;5095700;28;9604;-61
2022/08/08 07:52:06;;;;;;;;;10.40;9.20;;;;;20.78;45.72;100733.53;5093921;28;8944;-61
2022/08/08 07:54:39;;;;;;;;;11.80;11.00;;;;;20.92;45.81;100741.03;5094198;28;8850;-61
2022/08/08 07:57:07;;;;;;;;;11.60;10.60;;;;;21.04;45.60;100741.53;5094186;28;8833;-62
2022/08/08 07:59:38;;;;;;;;;10.80;10.60;;;;;21.15;45.60;100741.19;5095317;28;8956;-62
2022/08/08 08:02:10;;;;;;;;;11.60;11.00;;;;;21.27;45.37;100739.84;5095344;28;8841;-62
2022/08/08 08:04:58;;;;;;;;;10.60;10.00;;;;;21.38;45.29;100742.19;5094051;28;8908;-62
2022/08/08 08:07:25;;;;;;;;;8.80;8.80;;;;;21.48;45.14;100746.41;5077382;28;9532;-62
2022/08/08 08:09:59;;;;;;;;;10.20;10.00;;;;;21.55;45.20;100750.13;5096014;28;9488;-61
2022/08/08 08:12:28;;;;;;;;;8.80;8.40;;;;;21.65;45.08;100747.22;5095666;28;8838;-61
2022/08/08 08:15:09;;;;;;;;;10.20;9.20;;;;;21.78;45.11;100747.56;5095292;28;9622;-61
2022/08/08 08:17:37;;;;;;;;;7.80;7.20;;;;;21.90;45.09;100732.59;5095277;28;8865;-61
2022/08/08 08:20:15;;;;;;;;;8.40;8.00;;;;;22.03;44.78;100743.75;5094683;28;8964;-61
2022/08/08 08:22:43;;;;;;;;;8.20;8.20;;;;;22.15;44.26;100747.78;5093646;28;8877;-61
2022/08/08 08:25:14;;;;;;;;;9.40;8.40;;;;;22.25;43.86;100748.41;5095355;28;8850;-62
2022/08/08 08:27:45;;;;;;;;;8.00;8.00;;;;;22.36;44.24;100750.72;5094534;28;8906;-62
2022/08/08 08:30:13;;;;;;;;;6.80;6.20;;;;;22.48;43.60;100754.75;5095636;28;8833;-62
2022/08/08 08:32:43;;;;;;;;;8.80;8.00;;;;;22.57;44.23;100759.13;5095556;28;8864;-61
2022/08/08 08:35:18;;;;;;;;;8.20;8.20;;;;;22.71;43.61;100744.78;5095188;28;8838;-61
2022/08/08 08:37:56;;;;;;;;;8.00;8.00;;;;;22.83;43.47;100738.75;5095173;28;8915;-61
2022/08/08 08:40:43;;;;;;;;;9.60;8.40;;;;;23.00;43.00;100737.59;5095565;28;8896;-61
2022/08/08 08:43:17;;;;;;;;;10.00;8.60;;;;;23.12;43.03;100732.56;5095587;28;8858;-63
2022/08/08 08:45:45;;;;;;;;;8.60;7.20;;;;;23.23;43.22;100746.59;5094148;28;8891;-61
2022/08/08 08:48:13;;;;;;;;;11.20;10.00;;;;;23.31;42.87;100743.78;5094705;28;8848;-61
2022/08/08 08:50:46;;;;;;;;;9.80;9.00;;;;;23.42;42.52;100746.09;5094269;28;8992;-61
2022/08/08 08:53:18;;;;;;;;;8.80;8.60;;;;;23.54;42.91;100746.47;5094500;28;8860;-62
2022/08/08 08:55:54;;;;;;;;;9.00;9.00;;;;;23.66;42.49;100750.44;5094200;28;8842;-62
2022/08/08 08:58:29;;;;;;;;;8.40;7.00;;;;;23.77;42.17;100744.53;5094730;28;8845;-61
2022/08/08 09:00:57;;;;;;;;;9.20;8.80;;;;;23.87;42.22;100737.81;5094449;28;8838;-61
2022/08/08 09:03:36;;;;;;;;;7.40;7.40;;;;;23.99;42.64;100743.63;5094313;28;8857;-62
2022/08/08 09:06:14;;;;;;;;;9.40;9.40;;;;;24.10;41.74;100740.41;5094091;28;8857;-61
2022/08/08 09:09:00;;;;;;;;;9.80;9.80;;;;;24.17;42.06;100736.78;5094480;28;8853;-61
2022/08/08 09:11:29;;;;;;;;;7.20;7.20;;;;;24.30;41.76;100738.81;5094317;28;8849;-61
2022/08/08 09:13:59;;;;;;;;;6.60;6.00;;;;;24.42;41.31;100734.56;5095240;28;8829;-61
2022/08/08 09:16:27;;;;;;;;;9.60;9.40;;;;;24.53;41.54;100736.78;5094503;28;8877;-61
2022/08/08 09:19:00;;;;;;;;;7.00;7.00;;;;;24.66;41.49;100737.81;5094050;28;8967;-61
2022/08/08 09:21:27;;;;;;;;;10.80;10.40;;;;;24.80;41.18;100741.53;5093900;28;8842;-61
2022/08/08 09:24:15;;;;;;;;;10.00;9.00;;;;;24.92;41.41;100742.69;5093440;28;8842;-62
2022/08/08 09:26:46;;;;;;;;;7.80;7.80;;;;;25.04;41.42;100732.97;5092272;28;8919;-63
2022/08/08 09:29:18;;;;;;;;;9.00;7.60;;;;;25.18;41.05;100737.50;5089861;28;8844;-62
2022/08/08 09:31:51;;;;;;;;;7.60;6.80;;;;;25.30;40.60;100730.50;5092987;28;8984;-62
2022/08/08 09:34:24;;;;;;;;;9.80;8.20;;;;;25.39;40.68;100738.34;5092598;28;8885;-61
2022/08/08 09:37:00;;;;;;;;;8.80;8.40;;;;;25.51;40.86;100736.78;5091943;28;8869;-61
2022/08/08 09:39:48;;;;;;;;;9.40;9.40;;;;;25.65;40.46;100741.28;5092706;28;8846;-62
2022/08/08 09:42:16;;;;;;;;;6.00;6.00;;;;;25.83;39.77;100739.72;5093748;28;8834;-63
2022/08/08 09:44:49;;;;;;;;;7.00;7.00;;;;;26.09;39.50;100734.44;5092912;28;8850;-62
2022/08/08 09:47:17;;;;;;;;;9.60;9.60;;;;;26.41;39.02;100733.72;5093094;28;8838;-62
2022/08/08 09:50:05;;;;;;;;;8.00;8.00;;;;;26.77;38.93;100731.56;5092741;28;9619;-61
2022/08/08 09:52:40;;;;;;;;;6.20;6.20;;;;;27.18;37.83;100736.91;5075454;28;8988;-63
2022/08/08 09:55:25;;;;;;;;;6.20;6.00;;;;;27.67;37.74;100737.31;5090091;28;8976;-61
2022/08/08 09:58:13;;;;;;;;;6.00;6.00;;;;;28.21;37.05;100730.47;5091789;28;8935;-62
2022/08/08 10:00:52;;;;;;;;;7.20;7.20;;;;;28.67;36.66;100728.38;5092052;28;8988;-62
2022/08/08 10:03:25;;;;;;;;;9.00;8.20;;;;;29.08;35.81;100736.19;5091498;28;8846;-62
2022/08/08 10:05:53;;;;;;;;;8.60;8.60;;;;;29.33;35.85;100731.53;5088904;28;8991;-62
2022/08/08 10:08:21;;;;;;;;;7.20;7.00;;;;;29.63;35.15;100727.94;5089613;28;8848;-63
2022/08/08 10:10:48;;;;;;;;;8.40;8.00;;;;;29.97;35.44;100724.63;5089314;28;8964;-62
2022/08/08 10:13:18;;;;;;;;;6.60;5.00;;;;;30.34;34.78;100726.28;5088655;28;8845;-62
2022/08/08 10:15:52;;;;;;;;;8.60;8.40;;;;;30.77;33.90;100729.78;5089320;28;8996;-62
2022/08/08 10:18:28;;;;;;;;;8.60;7.20;;;;;31.13;33.43;100721.41;5090070;28;8927;-62
2022/08/08 10:20:57;;;;;;;;;6.80;6.20;;;;;31.45;33.50;100731.91;5088008;28;8895;-62
2022/08/08 10:23:35;;;;;;;;;9.80;9.00;;;;;31.75;33.36;100718.03;5089572;28;8830;-62
2022/08/08 10:26:09;;;;;;;;;7.60;6.80;;;;;31.97;33.05;100721.84;5089649;28;9306;-62
2022/08/08 10:28:57;;;;;;;;;6.00;6.00;;;;;32.25;32.41;100714.50;5089484;28;8929;-62
2022/08/08 10:34:14;;;;;;;;;7.00;7.00;;;;;32.71;31.87;100711.59;5089496;28;8870;-62
2022/08/08 10:36:46;;;;;;;;;6.00;6.00;;;;;32.92;32.05;100718.38;5090732;28;8842;-62
2022/08/08 10:39:14;;;;;;;;;8.00;7.20;;;;;33.13;31.63;100718.47;5090242;28;9678;-62
2022/08/08 10:41:43;;;;;;;;;8.00;7.00;;;;;33.30;31.09;100716.59;5091957;28;8834;-62
2022/08/08 10:44:31;;;;;;;;;7.00;7.00;;;;;33.48;31.56;100718.28;5091344;28;8858;-62
2022/08/08 10:46:59;;;;;;;;;6.20;6.00;;;;;33.59;31.49;100714.59;5090037;28;8934;-62
2022/08/08 10:49:27;;;;;;;;;6.20;6.20;;;;;33.73;31.20;100721.41;5087771;28;8858;-63
2022/08/08 10:52:15;;;;;;;;;6.60;6.20;;;;;33.97;30.76;100714.66;5088597;28;8887;-63
2022/08/08 10:54:54;;;;;;;;;7.00;6.80;;;;;34.14;30.68;100712.66;5088954;28;8838;-62
2022/08/08 10:57:24;;;;;;;;;6.60;6.60;;;;;34.29;30.14;100713.72;5088635;28;8914;-62
2022/08/08 11:00:12;;;;;;;;;5.60;5.60;;;;;34.44;29.99;100713.91;5088499;28;8926;-62
2022/08/08 11:02:41;;;;;;;;;7.00;6.80;;;;;34.66;30.36;100720.25;5089525;28;9235;-62
2022/08/08 11:05:12;;;;;;;;;7.00;7.00;;;;;34.92;29.96;100715.84;5091336;28;8853;-62
2022/08/08 11:07:44;;;;;;;;;7.00;6.00;;;;;35.16;29.88;100715.25;5092739;28;8919;-62
2022/08/08 11:10:31;;;;;;;;;6.00;6.00;;;;;35.45;29.07;100715.81;5091533;28;8986;-62
2022/08/08 11:13:00;;;;;;;;;6.60;6.60;;;;;35.65;28.88;100711.28;5090948;28;8837;-62
2022/08/08 11:15:48;;;;;;;;;5.80;5.80;;;;;35.82;28.99;100716.66;5089982;28;8838;-63
2022/08/08 11:18:28;;;;;;;;;7.80;7.00;;;;;35.97;27.94;100706.50;5090100;28;8865;-62
2022/08/08 11:20:56;;;;;;;;;6.60;6.00;;;;;36.04;28.08;100705.16;5090741;28;8825;-63
2022/08/08 11:23:25;;;;;;;;;5.20;5.20;;;;;36.12;28.14;100710.19;5091059;28;8842;-62
2022/08/08 11:25:59;;;;;;;;;6.40;6.00;;;;;36.33;28.03;100709.22;5090975;28;8841;-62
2022/08/08 11:28:27;;;;;;;;;5.40;5.40;;;;;36.50;27.38;100704.25;5094774;28;8838;-62
2022/08/08 11:30:57;;;;;;;;;6.00;5.20;;;;;36.80;27.54;100698.00;5095879;28;8939;-62
2022/08/08 11:33:26;;;;;;;;;5.00;5.00;;;;;37.12;27.08;100698.63;5095998;28;8842;-62
2022/08/08 11:36:14;;;;;;;;;4.60;4.60;;;;;37.51;26.83;100703.38;5095876;28;8834;-62
2022/08/08 11:38:43;;;;;;;;;7.20;7.20;;;;;37.75;27.10;100696.13;5096737;28;8826;-63
2022/08/08 11:41:22;;;;;;;;;5.80;5.60;;;;;37.97;26.34;100690.22;5096043;28;8834;-63
2022/08/08 11:43:50;;;;;;;;;5.00;5.00;;;;;37.96;26.52;100692.19;5096111;28;8914;-63
2022/08/08 11:46:20;;;;;;;;;7.80;7.80;;;;;37.84;26.55;100688.84;5095449;28;8873;-62
2022/08/08 11:48:50;;;;;;;;;7.40;6.80;;;;;37.78;26.44;100692.75;5094392;28;8834;-62
2022/08/08 11:51:18;;;;;;;;;7.20;7.00;;;;;37.85;26.14;100689.69;5094020;28;8834;-62
2022/08/08 11:54:05;;;;;;;;;6.80;6.80;;;;;38.08;26.59;100692.69;5094553;28;8880;-62
2022/08/08 11:56:53;;;;;;;;;6.20;6.00;;;;;38.28;26.36;100689.84;5095259;28;9250;-63
2022/08/08 11:59:24;;;;;;;;;6.80;6.80;;;;;38.32;26.12;100685.38;5095479;28;8975;-63
2022/08/08 12:02:12;;;;;;;;;6.00;6.00;;;;;38.35;25.74;100689.53;5093770;28;8897;-63
2022/08/08 12:04:58;;;;;;;;;6.60;6.20;;;;;38.34;25.89;100682.28;5093049;28;8850;-62
2022/08/08 12:07:26;;;;;;;;;5.40;5.40;;;;;38.41;25.91;100677.28;5092562;28;8841;-63
2022/08/08 12:09:55;;;;;;;;;6.20;5.20;;;;;38.38;26.00;100680.63;5093362;28;8845;-62
2022/08/08 12:12:34;;;;;;;;;8.20;6.80;;;;;38.41;26.09;100677.28;5092180;28;8900;-62
2022/08/08 12:15:02;;;;;;;;;6.60;5.80;;;;;38.52;25.43;100685.28;5090879;28;8846;-62
2022/08/08 12:17:31;;;;;;;;;8.40;6.40;;;;;38.58;25.57;100673.00;5090042;28;8842;-63